Terminal Aerodrome Forecast
Issued by NWS Duluth, MN

Home | Current Version | Previous Version | Text Only | Print | Product List | Glossary On
Versions: 1 2 3 4 5 6 7 8 9 10 11 12 13 14 15 16 17 18 19 20 21
000
FTUS43 KDLH 210500
TAFDLH
TAF
KDLH 210533Z 2106/2206 33010KT P6SM -RA BKN025 OVC035
     FM210900 35007KT P6SM OVC010
     FM211300 35010KT P6SM BKN025
     FM211700 33009KT P6SM SCT030
     FM220300 30004KT P6SM SKC=

USA.gov is the U.S. government's official web portal to all federal, state and local government web resources and services.